MON18BM EGBB-LEIB
Flight info
| Callsign | MON18BM |
|---|---|
| Flight time | 2h 13m |
| Altitude | 31000 |
| Route | CPT UN859 SOPIL DCT BALAN DCT EVPOK DCT NARAK DCT GAI DCT LOMRA DCT ROCAN DCT PUMAL N859 BCN Z174 CORDA |
| Aircraft | A321/M-SDE3FGHIRWY/LB1 |
Departure
| Time | 2026-04-30 18:50 |
|---|---|
| Airport | Birmingham Airport (EGBB) |
Arrival
| Time | 2026-04-30 21:04 |
|---|---|
| Airport | Ibiza Airport (LEIB) |
| Time | Latitude | Longitude | Altitude | Speed | Heading |
|---|---|---|---|---|---|
| 2026-04-30 18:23 | 52.45205 | -1.73696 | 324 ft | 0 kts | 326° |
| 2026-04-30 18:42 | 52.45203 | -1.73694 | 323 ft | 2 kts | 326° |
| 2026-04-30 18:45 | 52.45163 | -1.73569 | 321 ft | 0 kts | 236° |
| 2026-04-30 18:46 | 52.45161 | -1.73573 | 323 ft | 3 kts | 236° |
| 2026-04-30 18:46 | 52.45116 | -1.73683 | 323 ft | 18 kts | 236° |
| 2026-04-30 18:46 | 52.45160 | -1.73842 | 323 ft | 20 kts | 327° |
| 2026-04-30 18:46 | 52.45308 | -1.74024 | 323 ft | 30 kts | 305° |
| 2026-04-30 18:47 | 52.45401 | -1.74332 | 323 ft | 30 kts | 296° |
| 2026-04-30 18:47 | 52.45515 | -1.74618 | 323 ft | 30 kts | 322° |
| 2026-04-30 18:47 | 52.45679 | -1.74799 | 314 ft | 29 kts | 326° |
| 2026-04-30 18:47 | 52.45848 | -1.74988 | 307 ft | 30 kts | 326° |
| 2026-04-30 18:48 | 52.46017 | -1.75176 | 307 ft | 29 kts | 326° |
| 2026-04-30 18:48 | 52.46185 | -1.75361 | 303 ft | 30 kts | 326° |
| 2026-04-30 18:48 | 52.46355 | -1.75554 | 302 ft | 30 kts | 330° |
| 2026-04-30 18:48 | 52.46521 | -1.75736 | 306 ft | 24 kts | 326° |
| 2026-04-30 18:49 | 52.46627 | -1.75869 | 310 ft | 18 kts | 303° |
| 2026-04-30 18:49 | 52.46585 | -1.76043 | 305 ft | 18 kts | 234° |
| 2026-04-30 18:49 | 52.46497 | -1.76033 | 310 ft | 22 kts | 147° |
| 2026-04-30 18:49 | 52.46153 | -1.75653 | 310 ft | 94 kts | 145° |
| 2026-04-30 18:50 | 52.45444 | -1.74871 | 323 ft | 149 kts | 147° |
| 2026-04-30 18:50 | 52.44538 | -1.73863 | 869 ft | 154 kts | 142° |
| 2026-04-30 18:50 | 52.43660 | -1.72883 | 1687 ft | 152 kts | 142° |
| 2026-04-30 18:50 | 52.42786 | -1.71906 | 2303 ft | 155 kts | 143° |
| 2026-04-30 18:51 | 52.41836 | -1.70838 | 2582 ft | 176 kts | 144° |
| 2026-04-30 18:51 | 52.40672 | -1.69926 | 2835 ft | 196 kts | 164° |
| 2026-04-30 18:51 | 52.39317 | -1.69402 | 3316 ft | 203 kts | 165° |
| 2026-04-30 18:51 | 52.37952 | -1.68757 | 3924 ft | 205 kts | 156° |
| 2026-04-30 18:52 | 52.36667 | -1.67724 | 4570 ft | 206 kts | 154° |
| 2026-04-30 18:52 | 52.35378 | -1.66677 | 5188 ft | 208 kts | 155° |
| 2026-04-30 18:52 | 52.34008 | -1.65675 | 5535 ft | 227 kts | 158° |
| 2026-04-30 18:52 | 52.32472 | -1.64651 | 5806 ft | 248 kts | 158° |
| 2026-04-30 18:53 | 52.30835 | -1.63587 | 6388 ft | 257 kts | 159° |
| 2026-04-30 18:53 | 52.29180 | -1.62520 | 7045 ft | 261 kts | 158° |
| 2026-04-30 18:53 | 52.27482 | -1.61421 | 7798 ft | 263 kts | 158° |
| 2026-04-30 18:53 | 52.25772 | -1.60309 | 8513 ft | 266 kts | 158° |
| 2026-04-30 18:54 | 52.24039 | -1.59217 | 9223 ft | 269 kts | 161° |
| 2026-04-30 18:54 | 52.22260 | -1.58251 | 9947 ft | 271 kts | 162° |
| 2026-04-30 18:54 | 52.20448 | -1.57345 | 10629 ft | 273 kts | 163° |
| 2026-04-30 18:54 | 52.18623 | -1.56456 | 11305 ft | 275 kts | 163° |
| 2026-04-30 18:55 | 52.16787 | -1.55561 | 11990 ft | 276 kts | 163° |
| 2026-04-30 18:55 | 52.13711 | -1.54042 | 13107 ft | 280 kts | 162° |
| 2026-04-30 18:55 | 52.11841 | -1.53099 | 13706 ft | 286 kts | 161° |
| 2026-04-30 18:56 | 52.07841 | -1.50701 | 13964 ft | 325 kts | 158° |
| 2026-04-30 18:56 | 52.05678 | -1.49302 | 14091 ft | 343 kts | 158° |
| 2026-04-30 18:56 | 52.03429 | -1.47840 | 14451 ft | 352 kts | 158° |
| 2026-04-30 18:57 | 51.98826 | -1.44883 | 15501 ft | 359 kts | 158° |
| 2026-04-30 18:57 | 51.96483 | -1.43398 | 16062 ft | 363 kts | 158° |
| 2026-04-30 18:57 | 51.94116 | -1.41917 | 16634 ft | 366 kts | 159° |
| 2026-04-30 18:58 | 51.89311 | -1.38934 | 17770 ft | 372 kts | 159° |
| 2026-04-30 18:58 | 51.86882 | -1.37423 | 18321 ft | 376 kts | 159° |
| 2026-04-30 18:58 | 51.84434 | -1.35900 | 18830 ft | 379 kts | 159° |
| 2026-04-30 18:59 | 51.79534 | -1.32631 | 19841 ft | 383 kts | 154° |
| 2026-04-30 19:00 | 51.72329 | -1.26806 | 21324 ft | 388 kts | 153° |
| 2026-04-30 19:00 | 51.69924 | -1.24808 | 21788 ft | 390 kts | 153° |
| 2026-04-30 19:00 | 51.65057 | -1.20822 | 22718 ft | 394 kts | 153° |
| 2026-04-30 19:01 | 51.60165 | -1.16865 | 23608 ft | 398 kts | 153° |
| 2026-04-30 19:01 | 51.57684 | -1.14863 | 24007 ft | 399 kts | 153° |
| 2026-04-30 19:02 | 51.52686 | -1.10845 | 24690 ft | 404 kts | 153° |
| 2026-04-30 19:02 | 51.47630 | -1.06790 | 25387 ft | 408 kts | 153° |
| 2026-04-30 19:03 | 51.42519 | -1.02696 | 26057 ft | 413 kts | 153° |
| 2026-04-30 19:03 | 51.37381 | -0.98591 | 26697 ft | 417 kts | 153° |
| 2026-04-30 19:04 | 51.32163 | -0.94431 | 27331 ft | 421 kts | 153° |
| 2026-04-30 19:04 | 51.26891 | -0.90237 | 27957 ft | 426 kts | 153° |
| 2026-04-30 19:05 | 51.21555 | -0.86010 | 28590 ft | 430 kts | 154° |
| 2026-04-30 19:05 | 51.16178 | -0.81770 | 29366 ft | 431 kts | 154° |
| 2026-04-30 19:06 | 51.10811 | -0.77538 | 30236 ft | 429 kts | 154° |
| 2026-04-30 19:06 | 51.08138 | -0.75426 | 30585 ft | 429 kts | 154° |
| 2026-04-30 19:06 | 51.02792 | -0.71215 | 31130 ft | 429 kts | 154° |
| 2026-04-30 19:07 | 50.94903 | -0.65039 | 31157 ft | 419 kts | 154° |
| 2026-04-30 19:08 | 50.84474 | -0.56910 | 31162 ft | 419 kts | 154° |
| 2026-04-30 19:09 | 50.76621 | -0.50816 | 31189 ft | 422 kts | 154° |
| 2026-04-30 19:09 | 50.73970 | -0.48765 | 31368 ft | 426 kts | 154° |
| 2026-04-30 19:09 | 50.71300 | -0.46697 | 31647 ft | 428 kts | 154° |
| 2026-04-30 19:10 | 50.65956 | -0.42565 | 32300 ft | 427 kts | 154° |
| 2026-04-30 19:10 | 50.60609 | -0.38463 | 32953 ft | 427 kts | 154° |
| 2026-04-30 19:11 | 50.57937 | -0.36415 | 33285 ft | 426 kts | 154° |
| 2026-04-30 19:11 | 50.52615 | -0.32328 | 33944 ft | 425 kts | 154° |
| 2026-04-30 19:11 | 50.49989 | -0.30317 | 34235 ft | 425 kts | 154° |
| 2026-04-30 19:12 | 50.47331 | -0.28279 | 34493 ft | 425 kts | 154° |
| 2026-04-30 19:12 | 50.44671 | -0.26243 | 34732 ft | 425 kts | 154° |
| 2026-04-30 19:12 | 50.42005 | -0.24207 | 34968 ft | 426 kts | 154° |
| 2026-04-30 19:13 | 50.36666 | -0.20138 | 35146 ft | 427 kts | 154° |
| 2026-04-30 19:13 | 50.31316 | -0.16077 | 35144 ft | 427 kts | 154° |
| 2026-04-30 19:14 | 50.25963 | -0.12027 | 35140 ft | 427 kts | 154° |
| 2026-04-30 19:14 | 50.20607 | -0.07980 | 35141 ft | 428 kts | 154° |
| 2026-04-30 19:15 | 50.15246 | -0.03941 | 35143 ft | 428 kts | 154° |
| 2026-04-30 19:15 | 50.06993 | 0.01197 | 35139 ft | 429 kts | 165° |
| 2026-04-30 19:16 | 50.01203 | 0.03481 | 35144 ft | 430 kts | 165° |
| 2026-04-30 19:17 | 49.92494 | 0.06894 | 35141 ft | 431 kts | 165° |
| 2026-04-30 19:17 | 49.83772 | 0.10319 | 35138 ft | 431 kts | 165° |
| 2026-04-30 19:18 | 49.75030 | 0.13731 | 35142 ft | 432 kts | 165° |
| 2026-04-30 19:19 | 49.69190 | 0.15995 | 35146 ft | 433 kts | 165° |
| 2026-04-30 19:19 | 49.60435 | 0.19479 | 35148 ft | 433 kts | 164° |
| 2026-04-30 19:20 | 49.54602 | 0.21857 | 35148 ft | 434 kts | 164° |
| 2026-04-30 19:21 | 49.45829 | 0.25386 | 35147 ft | 434 kts | 165° |
| 2026-04-30 19:22 | 49.34146 | 0.30049 | 35145 ft | 436 kts | 165° |
| 2026-04-30 19:23 | 49.16566 | 0.37382 | 35142 ft | 437 kts | 164° |
| 2026-04-30 19:24 | 49.07763 | 0.41091 | 35140 ft | 438 kts | 164° |
| 2026-04-30 19:25 | 48.93042 | 0.47208 | 35154 ft | 438 kts | 164° |
| 2026-04-30 19:26 | 48.81307 | 0.52099 | 35149 ft | 437 kts | 164° |
| 2026-04-30 19:27 | 48.72500 | 0.55658 | 35145 ft | 437 kts | 165° |
| 2026-04-30 19:28 | 48.63659 | 0.59072 | 35144 ft | 437 kts | 165° |
| 2026-04-30 19:29 | 48.51998 | 0.63611 | 35129 ft | 424 kts | 165° |
| 2026-04-30 19:30 | 48.40630 | 0.68231 | 35130 ft | 422 kts | 164° |
| 2026-04-30 19:31 | 48.29269 | 0.72849 | 35127 ft | 423 kts | 165° |
| 2026-04-30 19:31 | 48.20770 | 0.76256 | 35134 ft | 423 kts | 165° |
| 2026-04-30 19:32 | 48.15068 | 0.78497 | 35134 ft | 423 kts | 165° |
| 2026-04-30 19:32 | 48.09365 | 0.80719 | 35138 ft | 423 kts | 165° |
| 2026-04-30 19:33 | 48.03660 | 0.82941 | 35139 ft | 423 kts | 165° |
| 2026-04-30 19:33 | 47.97956 | 0.85175 | 35142 ft | 423 kts | 165° |
| 2026-04-30 19:34 | 47.92256 | 0.87403 | 35143 ft | 423 kts | 165° |
| 2026-04-30 19:35 | 47.83742 | 0.90715 | 35145 ft | 423 kts | 165° |
| 2026-04-30 19:35 | 47.78049 | 0.92916 | 35151 ft | 423 kts | 164° |
| 2026-04-30 19:36 | 47.72363 | 0.95119 | 35152 ft | 422 kts | 164° |
| 2026-04-30 19:36 | 47.63837 | 0.98409 | 35153 ft | 422 kts | 164° |
| 2026-04-30 19:37 | 47.58158 | 1.00597 | 35153 ft | 422 kts | 164° |
| 2026-04-30 19:37 | 47.52482 | 1.02780 | 35154 ft | 421 kts | 165° |
| 2026-04-30 19:38 | 47.46803 | 1.04948 | 35152 ft | 421 kts | 165° |
| 2026-04-30 19:38 | 47.41026 | 1.06379 | 35150 ft | 422 kts | 178° |
| 2026-04-30 19:39 | 47.35144 | 1.06251 | 35150 ft | 423 kts | 180° |
| 2026-04-30 19:39 | 47.29264 | 1.06132 | 35155 ft | 423 kts | 180° |
| 2026-04-30 19:40 | 47.23379 | 1.05998 | 35156 ft | 423 kts | 180° |
| 2026-04-30 19:40 | 47.17491 | 1.05849 | 35161 ft | 422 kts | 180° |
| 2026-04-30 19:41 | 47.11647 | 1.05700 | 35163 ft | 422 kts | 180° |
| 2026-04-30 19:41 | 47.05772 | 1.05568 | 35165 ft | 422 kts | 180° |
| 2026-04-30 19:42 | 47.00852 | 1.05450 | 35167 ft | 422 kts | 180° |
| 2026-04-30 19:42 | 46.95024 | 1.05215 | 35170 ft | 422 kts | 180° |
| 2026-04-30 19:43 | 46.89152 | 1.04929 | 35166 ft | 422 kts | 180° |
| 2026-04-30 19:44 | 46.80357 | 1.04536 | 35162 ft | 422 kts | 180° |
| 2026-04-30 19:44 | 46.74480 | 1.04292 | 35165 ft | 422 kts | 180° |
| 2026-04-30 19:45 | 46.68611 | 1.04052 | 35164 ft | 422 kts | 180° |
| 2026-04-30 19:45 | 46.62743 | 1.03804 | 35158 ft | 422 kts | 180° |
| 2026-04-30 19:46 | 46.56888 | 1.03562 | 35147 ft | 423 kts | 180° |
| 2026-04-30 19:46 | 46.51001 | 1.03669 | 35157 ft | 422 kts | 171° |
| 2026-04-30 19:47 | 46.45252 | 1.05457 | 35156 ft | 422 kts | 166° |
| 2026-04-30 19:47 | 46.39516 | 1.07384 | 35152 ft | 423 kts | 166° |
| 2026-04-30 19:48 | 46.33800 | 1.09295 | 35159 ft | 424 kts | 166° |
| 2026-04-30 19:48 | 46.28042 | 1.11216 | 35157 ft | 425 kts | 166° |
| 2026-04-30 19:49 | 46.22276 | 1.13129 | 35158 ft | 425 kts | 167° |
| 2026-04-30 19:49 | 46.13619 | 1.15992 | 35184 ft | 426 kts | 167° |
| 2026-04-30 19:50 | 46.07839 | 1.17901 | 35189 ft | 426 kts | 167° |
| 2026-04-30 19:50 | 46.02061 | 1.19802 | 35199 ft | 426 kts | 167° |
| 2026-04-30 19:51 | 45.96285 | 1.21704 | 35198 ft | 426 kts | 167° |
| 2026-04-30 19:51 | 45.90503 | 1.23601 | 35200 ft | 426 kts | 167° |
| 2026-04-30 19:52 | 45.84720 | 1.25497 | 35208 ft | 426 kts | 168° |
| 2026-04-30 19:52 | 45.78940 | 1.27388 | 35205 ft | 426 kts | 168° |
| 2026-04-30 19:53 | 45.73159 | 1.29274 | 35199 ft | 426 kts | 168° |
| 2026-04-30 19:53 | 45.67380 | 1.31150 | 35198 ft | 426 kts | 168° |
| 2026-04-30 19:54 | 45.61594 | 1.33032 | 35198 ft | 426 kts | 168° |
| 2026-04-30 19:54 | 45.55803 | 1.34916 | 35194 ft | 427 kts | 168° |
| 2026-04-30 19:55 | 45.50047 | 1.36778 | 35191 ft | 427 kts | 169° |
| 2026-04-30 19:55 | 45.44248 | 1.38645 | 35190 ft | 427 kts | 169° |
| 2026-04-30 19:56 | 45.38451 | 1.40515 | 35190 ft | 427 kts | 169° |
| 2026-04-30 19:56 | 45.32651 | 1.42374 | 35193 ft | 427 kts | 169° |
| 2026-04-30 19:57 | 45.26848 | 1.44234 | 35193 ft | 427 kts | 169° |
| 2026-04-30 19:57 | 45.21043 | 1.46091 | 35196 ft | 427 kts | 169° |
| 2026-04-30 19:58 | 45.15244 | 1.47947 | 35200 ft | 427 kts | 169° |
| 2026-04-30 19:58 | 45.09444 | 1.49800 | 35195 ft | 427 kts | 169° |
| 2026-04-30 19:59 | 45.03640 | 1.51648 | 35193 ft | 428 kts | 170° |
| 2026-04-30 20:00 | 44.94929 | 1.54401 | 35190 ft | 428 kts | 170° |
| 2026-04-30 20:00 | 44.89110 | 1.56241 | 35184 ft | 429 kts | 170° |
| 2026-04-30 20:01 | 44.80373 | 1.59010 | 35179 ft | 429 kts | 171° |
| 2026-04-30 20:01 | 44.74540 | 1.60850 | 35177 ft | 430 kts | 171° |
| 2026-04-30 20:02 | 44.65774 | 1.63600 | 35170 ft | 431 kts | 171° |
| 2026-04-30 20:03 | 44.56978 | 1.66347 | 35169 ft | 432 kts | 171° |
| 2026-04-30 20:03 | 44.51098 | 1.68180 | 35171 ft | 433 kts | 172° |
| 2026-04-30 20:04 | 44.45210 | 1.70019 | 35165 ft | 434 kts | 172° |
| 2026-04-30 20:05 | 44.36353 | 1.72782 | 35169 ft | 435 kts | 172° |
| 2026-04-30 20:05 | 44.27504 | 1.75466 | 35171 ft | 435 kts | 174° |
| 2026-04-30 20:06 | 44.21527 | 1.76827 | 35174 ft | 434 kts | 176° |
| 2026-04-30 20:06 | 44.15542 | 1.78017 | 35175 ft | 435 kts | 176° |
| 2026-04-30 20:07 | 44.09543 | 1.79272 | 35175 ft | 436 kts | 176° |
| 2026-04-30 20:08 | 44.00549 | 1.81269 | 35175 ft | 436 kts | 176° |
| 2026-04-30 20:08 | 43.94587 | 1.82563 | 35173 ft | 436 kts | 178° |
| 2026-04-30 20:09 | 43.88566 | 1.83331 | 35177 ft | 434 kts | 182° |
| 2026-04-30 20:09 | 43.79346 | 1.83981 | 35186 ft | 447 kts | 182° |
| 2026-04-30 20:10 | 43.70017 | 1.84840 | 35185 ft | 448 kts | 181° |
| 2026-04-30 20:11 | 43.60671 | 1.85778 | 35180 ft | 449 kts | 181° |
| 2026-04-30 20:11 | 43.54438 | 1.86393 | 35176 ft | 449 kts | 181° |
| 2026-04-30 20:12 | 43.45091 | 1.87299 | 35178 ft | 449 kts | 181° |
| 2026-04-30 20:13 | 43.38853 | 1.87888 | 35175 ft | 449 kts | 181° |
| 2026-04-30 20:13 | 43.32652 | 1.88476 | 35170 ft | 449 kts | 181° |
| 2026-04-30 20:14 | 43.26409 | 1.89071 | 35170 ft | 450 kts | 181° |
| 2026-04-30 20:14 | 43.20167 | 1.89667 | 35169 ft | 450 kts | 181° |
| 2026-04-30 20:15 | 43.13922 | 1.90265 | 35175 ft | 450 kts | 181° |
| 2026-04-30 20:15 | 43.07669 | 1.90857 | 35180 ft | 450 kts | 181° |
| 2026-04-30 20:16 | 43.01421 | 1.91450 | 35189 ft | 450 kts | 181° |
| 2026-04-30 20:16 | 42.95212 | 1.92041 | 35182 ft | 450 kts | 181° |
| 2026-04-30 20:17 | 42.88969 | 1.92633 | 35187 ft | 449 kts | 181° |
| 2026-04-30 20:17 | 42.82728 | 1.93223 | 35189 ft | 449 kts | 181° |
| 2026-04-30 20:18 | 42.76487 | 1.93802 | 35191 ft | 449 kts | 181° |
| 2026-04-30 20:18 | 42.70262 | 1.94391 | 35193 ft | 448 kts | 181° |
| 2026-04-30 20:19 | 42.64039 | 1.95136 | 35191 ft | 450 kts | 178° |
| 2026-04-30 20:19 | 42.57828 | 1.96404 | 35194 ft | 452 kts | 175° |
| 2026-04-30 20:20 | 42.51623 | 1.97820 | 35201 ft | 452 kts | 176° |
| 2026-04-30 20:20 | 42.45463 | 1.99124 | 35197 ft | 451 kts | 176° |
| 2026-04-30 20:21 | 42.39246 | 2.00350 | 35199 ft | 451 kts | 176° |
| 2026-04-30 20:21 | 42.33026 | 2.01391 | 35193 ft | 449 kts | 180° |
| 2026-04-30 20:22 | 42.26813 | 2.01941 | 35193 ft | 447 kts | 182° |
| 2026-04-30 20:22 | 42.20596 | 2.02386 | 35192 ft | 447 kts | 181° |
| 2026-04-30 20:23 | 42.14386 | 2.02925 | 35185 ft | 447 kts | 180° |
| 2026-04-30 20:23 | 42.08183 | 2.03522 | 35185 ft | 447 kts | 180° |
| 2026-04-30 20:24 | 42.01979 | 2.04123 | 35180 ft | 446 kts | 180° |
| 2026-04-30 20:24 | 41.95783 | 2.04718 | 35180 ft | 446 kts | 180° |
| 2026-04-30 20:25 | 41.86503 | 2.05585 | 35177 ft | 445 kts | 180° |
| 2026-04-30 20:26 | 41.77282 | 2.06451 | 35165 ft | 444 kts | 180° |
| 2026-04-30 20:26 | 41.68048 | 2.07312 | 35157 ft | 443 kts | 180° |
| 2026-04-30 20:27 | 41.56783 | 2.08374 | 35154 ft | 442 kts | 180° |
| 2026-04-30 20:28 | 41.44513 | 2.09501 | 35153 ft | 442 kts | 180° |
| 2026-04-30 20:30 | 41.29199 | 2.10948 | 35153 ft | 441 kts | 179° |
| 2026-04-30 20:31 | 41.10887 | 2.14126 | 35153 ft | 441 kts | 176° |
| 2026-04-30 20:32 | 40.95708 | 2.16629 | 35151 ft | 440 kts | 176° |
| 2026-04-30 20:33 | 40.86592 | 2.18155 | 35147 ft | 440 kts | 176° |
| 2026-04-30 20:34 | 40.77490 | 2.19659 | 35143 ft | 439 kts | 177° |
| 2026-04-30 20:35 | 40.68399 | 2.21160 | 35139 ft | 438 kts | 177° |
| 2026-04-30 20:35 | 40.59327 | 2.22670 | 35139 ft | 438 kts | 177° |
| 2026-04-30 20:36 | 40.53280 | 2.23664 | 35138 ft | 438 kts | 177° |
| 2026-04-30 20:37 | 40.44252 | 2.25147 | 35134 ft | 437 kts | 177° |
| 2026-04-30 20:37 | 40.38215 | 2.26138 | 35129 ft | 437 kts | 177° |
| 2026-04-30 20:38 | 40.32176 | 2.27134 | 35125 ft | 437 kts | 177° |
| 2026-04-30 20:38 | 40.26138 | 2.28116 | 35126 ft | 437 kts | 177° |
| 2026-04-30 20:39 | 40.17084 | 2.29586 | 35117 ft | 437 kts | 178° |
| 2026-04-30 20:40 | 40.08027 | 2.31048 | 35113 ft | 437 kts | 178° |
| 2026-04-30 20:40 | 40.01994 | 2.32023 | 35111 ft | 437 kts | 178° |
| 2026-04-30 20:41 | 39.92973 | 2.33485 | 35105 ft | 437 kts | 178° |
| 2026-04-30 20:41 | 39.86930 | 2.34465 | 35099 ft | 437 kts | 178° |
| 2026-04-30 20:42 | 39.80886 | 2.35435 | 35098 ft | 437 kts | 178° |
| 2026-04-30 20:42 | 39.74844 | 2.36404 | 34948 ft | 438 kts | 178° |
| 2026-04-30 20:43 | 39.71821 | 2.36888 | 34708 ft | 437 kts | 179° |
| 2026-04-30 20:43 | 39.68800 | 2.37372 | 34455 ft | 437 kts | 179° |
| 2026-04-30 20:43 | 39.65781 | 2.37855 | 33912 ft | 437 kts | 179° |
| 2026-04-30 20:44 | 39.59795 | 2.38744 | 32919 ft | 426 kts | 184° |
| 2026-04-30 20:44 | 39.56876 | 2.38554 | 32449 ft | 415 kts | 194° |
| 2026-04-30 20:44 | 39.51556 | 2.36237 | 31484 ft | 397 kts | 213° |
| 2026-04-30 20:45 | 39.47082 | 2.32240 | 30557 ft | 388 kts | 219° |
| 2026-04-30 20:45 | 39.44896 | 2.30203 | 30085 ft | 386 kts | 219° |
| 2026-04-30 20:45 | 39.42725 | 2.28185 | 29587 ft | 383 kts | 219° |
| 2026-04-30 20:46 | 39.36322 | 2.22240 | 28264 ft | 373 kts | 218° |
| 2026-04-30 20:46 | 39.34222 | 2.20288 | 27840 ft | 371 kts | 218° |
| 2026-04-30 20:47 | 39.30052 | 2.16419 | 27013 ft | 367 kts | 218° |
| 2026-04-30 20:47 | 39.27986 | 2.14507 | 26604 ft | 365 kts | 218° |
| 2026-04-30 20:48 | 39.23888 | 2.10717 | 25816 ft | 360 kts | 218° |
| 2026-04-30 20:48 | 39.21886 | 2.08865 | 25429 ft | 357 kts | 218° |
| 2026-04-30 20:48 | 39.19873 | 2.07005 | 25046 ft | 355 kts | 217° |
| 2026-04-30 20:48 | 39.17871 | 2.05155 | 24658 ft | 353 kts | 217° |
| 2026-04-30 20:49 | 39.15883 | 2.03321 | 24276 ft | 350 kts | 217° |
| 2026-04-30 20:49 | 39.13906 | 2.01497 | 23887 ft | 348 kts | 217° |
| 2026-04-30 20:49 | 39.11945 | 1.99688 | 23469 ft | 346 kts | 217° |
| 2026-04-30 20:50 | 39.08070 | 1.96122 | 22655 ft | 339 kts | 217° |
| 2026-04-30 20:50 | 39.06158 | 1.94370 | 22250 ft | 336 kts | 217° |
| 2026-04-30 20:50 | 39.04265 | 1.92636 | 21855 ft | 333 kts | 217° |
| 2026-04-30 20:50 | 39.02391 | 1.90916 | 21462 ft | 330 kts | 217° |
| 2026-04-30 20:51 | 39.00529 | 1.89207 | 21048 ft | 328 kts | 217° |
| 2026-04-30 20:51 | 38.97460 | 1.84978 | 19946 ft | 329 kts | 243° |
| 2026-04-30 20:51 | 38.96403 | 1.82380 | 19528 ft | 327 kts | 243° |
| 2026-04-30 20:52 | 38.95344 | 1.79802 | 19127 ft | 325 kts | 242° |
| 2026-04-30 20:52 | 38.94289 | 1.77242 | 18743 ft | 324 kts | 242° |
| 2026-04-30 20:52 | 38.92193 | 1.72151 | 17917 ft | 320 kts | 243° |
| 2026-04-30 20:53 | 38.91155 | 1.69631 | 17397 ft | 320 kts | 243° |
| 2026-04-30 20:53 | 38.90104 | 1.67080 | 16748 ft | 325 kts | 243° |
| 2026-04-30 20:53 | 38.89049 | 1.64513 | 16295 ft | 324 kts | 243° |
| 2026-04-30 20:54 | 38.86976 | 1.59467 | 15469 ft | 319 kts | 243° |
| 2026-04-30 20:54 | 38.85944 | 1.56957 | 15061 ft | 316 kts | 243° |
| 2026-04-30 20:54 | 38.84929 | 1.54491 | 14404 ft | 310 kts | 243° |
| 2026-04-30 20:55 | 38.82941 | 1.49668 | 12660 ft | 302 kts | 243° |
| 2026-04-30 20:55 | 38.81962 | 1.47295 | 11809 ft | 299 kts | 243° |
| 2026-04-30 20:55 | 38.81015 | 1.45005 | 11329 ft | 285 kts | 243° |
| 2026-04-30 20:56 | 38.79194 | 1.40590 | 9947 ft | 278 kts | 243° |
| 2026-04-30 20:56 | 38.78291 | 1.38404 | 9156 ft | 276 kts | 243° |
| 2026-04-30 20:56 | 38.76481 | 1.34030 | 7988 ft | 279 kts | 243° |
| 2026-04-30 20:57 | 38.75571 | 1.31837 | 7620 ft | 279 kts | 243° |
| 2026-04-30 20:57 | 38.74658 | 1.29642 | 7254 ft | 278 kts | 243° |
| 2026-04-30 20:57 | 38.73742 | 1.27448 | 6888 ft | 279 kts | 243° |
| 2026-04-30 20:58 | 38.72046 | 1.23009 | 6101 ft | 274 kts | 258° |
| 2026-04-30 20:58 | 38.71927 | 1.20621 | 5378 ft | 268 kts | 282° |
| 2026-04-30 20:58 | 38.72559 | 1.18412 | 4652 ft | 264 kts | 304° |
| 2026-04-30 20:58 | 38.73788 | 1.16733 | 4137 ft | 251 kts | 327° |
| 2026-04-30 20:59 | 38.77007 | 1.15946 | 3441 ft | 236 kts | 17° |
| 2026-04-30 20:59 | 38.78421 | 1.16859 | 3244 ft | 223 kts | 39° |
| 2026-04-30 21:00 | 38.80092 | 1.19995 | 2754 ft | 206 kts | 62° |
| 2026-04-30 21:00 | 38.81362 | 1.23047 | 2224 ft | 183 kts | 62° |
| 2026-04-30 21:01 | 38.82494 | 1.25768 | 1787 ft | 157 kts | 62° |
| 2026-04-30 21:01 | 38.82990 | 1.26960 | 1564 ft | 148 kts | 62° |
| 2026-04-30 21:01 | 38.83937 | 1.29240 | 1179 ft | 143 kts | 63° |
| 2026-04-30 21:02 | 38.84403 | 1.30364 | 993 ft | 143 kts | 63° |
| 2026-04-30 21:02 | 38.84865 | 1.31489 | 795 ft | 143 kts | 63° |
| 2026-04-30 21:02 | 38.85338 | 1.32605 | 609 ft | 142 kts | 61° |
| 2026-04-30 21:02 | 38.85802 | 1.33723 | 423 ft | 142 kts | 62° |
| 2026-04-30 21:03 | 38.86265 | 1.34841 | 230 ft | 141 kts | 64° |
| 2026-04-30 21:03 | 38.86727 | 1.35950 | 53 ft | 141 kts | 63° |
| 2026-04-30 21:03 | 38.87143 | 1.36979 | 9 ft | 115 kts | 63° |
| 2026-04-30 21:03 | 38.87440 | 1.37693 | 4 ft | 66 kts | 62° |
| 2026-04-30 21:04 | 38.87579 | 1.38031 | 6 ft | 29 kts | 62° |
| 2026-04-30 21:04 | 38.87666 | 1.38229 | 8 ft | 22 kts | 46° |
| 2026-04-30 21:04 | 38.87816 | 1.38149 | 8 ft | 8 kts | 262° |
| 2026-04-30 21:05 | 38.87789 | 1.38083 | 9 ft | 9 kts | 240° |
| 2026-04-30 21:05 | 38.87758 | 1.38005 | 8 ft | 11 kts | 243° |
| 2026-04-30 21:05 | 38.87722 | 1.37914 | 9 ft | 12 kts | 242° |
| 2026-04-30 21:05 | 38.87680 | 1.37811 | 10 ft | 14 kts | 243° |
| 2026-04-30 21:06 | 38.87633 | 1.37696 | 8 ft | 15 kts | 241° |
| 2026-04-30 21:06 | 38.87579 | 1.37571 | 8 ft | 17 kts | 241° |
| 2026-04-30 21:06 | 38.87521 | 1.37432 | 8 ft | 18 kts | 242° |
| 2026-04-30 21:06 | 38.87459 | 1.37284 | 8 ft | 19 kts | 241° |
| 2026-04-30 21:07 | 38.87442 | 1.37191 | 10 ft | 9 kts | 312° |
| 2026-04-30 21:07 | 38.87491 | 1.37157 | 8 ft | 5 kts | 333° |
| 2026-04-30 21:07 | 38.87512 | 1.37142 | 9 ft | 1 kts | 332° |
| 2026-04-30 21:07 | 38.87513 | 1.37142 | 9 ft | 0 kts | 332° |